Time;durP1;ratioP1;P1;durP2;ratioP2;P2;SDS_P1;SDS_P2;PMS_P1;PMS_P2;Temp;Humidity;BMP_temperature;BMP_pressure;BME280_temperature;BME280_humidity;BME280_pressure;Samples;Min_cycle;Max_cycle;Signal;HPM_P1;HPM_P2
2023/08/12 00:02:12;;;;;;;;;;;22.40;77.70;;;;;;5034222;28;20004;-54
2023/08/12 00:04:38;;;;;;;;;;;22.40;77.70;;;;;;5032768;28;19921;-53
2023/08/12 00:07:03;;;;;;;;;;;22.40;77.70;;;;;;5034395;28;19910;-54
2023/08/12 00:09:29;;;;;;;;;;;22.40;77.70;;;;;;5031024;28;19913;-53
2023/08/12 00:11:54;;;;;;;;;;;22.40;77.60;;;;;;5034212;28;20398;-53
2023/08/12 00:14:19;;;;;;;;;;;22.40;77.80;;;;;;5032464;28;19999;-53
2023/08/12 00:16:45;;;;;;;;;;;22.40;77.70;;;;;;5033084;28;19917;-53
2023/08/12 00:19:10;;;;;;;;;;;22.40;77.60;;;;;;5033675;28;19913;-53
2023/08/12 00:21:36;;;;;;;;;;;22.40;77.60;;;;;;5033755;28;19913;-53
2023/08/12 00:24:01;;;;;;;;;;;22.40;77.70;;;;;;5010288;28;19917;-53
2023/08/12 00:26:27;;;;;;;;;;;22.40;77.60;;;;;;5030613;28;20331;-53
2023/08/12 00:28:52;;;;;;;;;;;22.40;77.60;;;;;;5031951;28;19920;-53
2023/08/12 00:31:18;;;;;;;;;;;22.40;77.60;;;;;;5031548;28;19920;-53
2023/08/12 00:33:44;;;;;;;;;;;22.40;77.50;;;;;;5033159;28;19913;-53
2023/08/12 00:36:09;;;;;;;;;;;22.40;77.50;;;;;;5031946;28;20025;-54
2023/08/12 00:38:35;;;;;;;;;;;22.40;77.40;;;;;;5024235;28;20365;-54
2023/08/12 00:41:00;;;;;;;;;;;22.40;77.30;;;;;;5032643;28;20035;-54
2023/08/12 00:43:25;;;;;;;;;;;22.40;77.30;;;;;;5032013;28;19910;-53
2023/08/12 00:45:51;;;;;;;;;;;22.40;77.50;;;;;;5029752;28;19913;-54
2023/08/12 00:48:16;;;;;;;;;;;22.40;77.40;;;;;;5029959;28;20404;-53
2023/08/12 00:50:42;;;;;;;;;;;22.40;77.30;;;;;;5032390;28;19915;-53
2023/08/12 00:53:08;;;;;;;;;;;22.40;77.50;;;;;;5030484;28;20304;-53
2023/08/12 00:55:34;;;;;;;;;;;22.40;77.30;;;;;;5031168;28;19923;-53
2023/08/12 00:57:59;;;;;;;;;;;22.40;77.40;;;;;;5032512;28;19909;-53
2023/08/12 01:00:25;;;;;;;;;;;22.30;77.30;;;;;;5031974;28;19916;-53
2023/08/12 01:02:50;;;;;;;;;;;22.30;77.30;;;;;;5032294;28;19917;-54
2023/08/12 01:05:16;;;;;;;;;;;22.30;77.20;;;;;;5032383;28;19913;-53
2023/08/12 01:07:42;;;;;;;;;;;22.30;77.20;;;;;;5030388;28;19921;-53
2023/08/12 01:10:09;;;;;;;;;;;22.30;77.10;;;;;;5032977;28;19909;-53
2023/08/12 01:12:41;;;;;;;;;;;22.40;77.10;;;;;;5032578;28;19925;-53
2023/08/12 01:15:17;;;;;;;;;;;22.30;77.00;;;;;;5032174;28;19909;-54
2023/08/12 01:17:42;;;;;;;;;;;22.30;77.00;;;;;;5013936;28;20365;-53
2023/08/12 01:20:08;;;;;;;;;;;22.30;77.00;;;;;;5031990;28;19912;-53
2023/08/12 01:22:36;;;;;;;;;;;22.30;77.00;;;;;;5032663;28;19924;-54
2023/08/12 01:25:02;;;;;;;;;;;22.30;77.00;;;;;;5014736;28;20280;-54
2023/08/12 01:27:27;;;;;;;;;;;22.30;77.00;;;;;;5032846;28;19909;-53
2023/08/12 01:29:52;;;;;;;;;;;22.30;77.00;;;;;;5030805;28;19915;-53
2023/08/12 01:32:18;;;;;;;;;;;22.30;76.90;;;;;;5028497;28;20031;-53
2023/08/12 01:34:46;;;;;;;;;;;22.30;77.60;;;;;;5030506;28;20016;-53
2023/08/12 01:37:12;;;;;;;;;;;22.30;76.90;;;;;;5009861;28;19917;-54
2023/08/12 01:39:38;;;;;;;;;;;22.30;76.80;;;;;;5028850;28;19913;-54
2023/08/12 01:42:04;;;;;;;;;;;22.30;76.90;;;;;;5031638;28;19923;-53
2023/08/12 01:44:29;;;;;;;;;;;22.30;76.80;;;;;;5047486;28;19921;-53
2023/08/12 01:46:55;;;;;;;;;;;22.30;76.80;;;;;;5041373;28;19913;-54
2023/08/12 01:49:20;;;;;;;;;;;22.30;76.90;;;;;;5029222;28;20468;-53
2023/08/12 01:51:45;;;;;;;;;;;22.30;76.80;;;;;;5031318;28;19913;-53
2023/08/12 01:54:11;;;;;;;;;;;22.30;76.90;;;;;;5030381;28;19909;-54
2023/08/12 01:56:36;;;;;;;;;;;22.30;77.00;;;;;;5013867;28;19927;-54
2023/08/12 01:59:02;;;;;;;;;;;22.30;77.10;;;;;;5030621;28;20500;-53
2023/08/12 02:01:27;;;;;;;;;;;22.30;76.90;;;;;;5029420;28;19972;-53
2023/08/12 02:03:53;;;;;;;;;;;22.30;77.70;;;;;;5028078;28;19917;-53
2023/08/12 02:06:19;;;;;;;;;;;22.30;77.00;;;;;;5030472;28;19920;-54
2023/08/12 02:08:45;;;;;;;;;;;22.30;76.90;;;;;;5029751;28;20460;-53
2023/08/12 02:11:10;;;;;;;;;;;22.30;76.70;;;;;;5030783;28;20000;-53
2023/08/12 02:13:35;;;;;;;;;;;22.30;76.80;;;;;;5029625;28;19998;-53
2023/08/12 02:16:01;;;;;;;;;;;22.30;76.90;;;;;;5029424;28;19956;-53
2023/08/12 02:18:26;;;;;;;;;;;22.30;77.80;;;;;;5027777;28;19909;-53
2023/08/12 02:20:52;;;;;;;;;;;22.30;77.00;;;;;;5030328;28;20361;-54
2023/08/12 02:23:17;;;;;;;;;;;22.30;76.90;;;;;;5029753;28;20044;-53
2023/08/12 02:25:43;;;;;;;;;;;22.30;76.70;;;;;;5030531;28;20000;-53
2023/08/12 02:28:08;;;;;;;;;;;22.30;76.50;;;;;;5028895;28;20012;-53
2023/08/12 02:30:34;;;;;;;;;;;22.30;76.50;;;;;;5029161;28;19922;-53
2023/08/12 02:32:59;;;;;;;;;;;22.20;76.50;;;;;;5027876;28;19909;-55
2023/08/12 02:35:25;;;;;;;;;;;22.30;76.50;;;;;;5030009;28;19920;-55
2023/08/12 02:37:50;;;;;;;;;;;22.20;76.50;;;;;;5031631;28;19916;-53
2023/08/12 02:40:16;;;;;;;;;;;22.20;76.50;;;;;;5034768;28;19916;-53
2023/08/12 02:42:41;;;;;;;;;;;22.20;76.40;;;;;;5032954;28;19932;-54
2023/08/12 02:45:07;;;;;;;;;;;22.20;76.40;;;;;;5031720;28;20285;-54
2023/08/12 02:47:32;;;;;;;;;;;22.20;76.40;;;;;;5033424;28;20340;-53
2023/08/12 02:49:57;;;;;;;;;;;22.20;76.40;;;;;;5033956;28;19917;-53
2023/08/12 02:52:23;;;;;;;;;;;22.20;76.50;;;;;;5035610;28;19924;-53
2023/08/12 02:54:48;;;;;;;;;;;22.20;76.40;;;;;;5029151;28;19924;-53
2023/08/12 02:57:14;;;;;;;;;;;22.20;76.40;;;;;;5022896;28;20382;-53
2023/08/12 02:59:39;;;;;;;;;;;22.20;76.40;;;;;;5033520;28;20284;-53
2023/08/12 03:02:05;;;;;;;;;;;22.20;76.40;;;;;;5031792;28;19921;-54
2023/08/12 03:04:30;;;;;;;;;;;22.20;76.30;;;;;;5034122;28;19909;-54
2023/08/12 03:06:56;;;;;;;;;;;22.20;76.20;;;;;;5035435;28;19952;-53
2023/08/12 03:09:21;;;;;;;;;;;22.20;76.30;;;;;;5035291;28;19932;-55
2023/08/12 03:11:47;;;;;;;;;;;22.20;76.20;;;;;;5033701;28;19971;-53
2023/08/12 03:14:12;;;;;;;;;;;22.20;76.30;;;;;;5034525;28;20357;-53
2023/08/12 03:16:37;;;;;;;;;;;22.20;76.50;;;;;;5031863;28;20000;-53
2023/08/12 03:19:03;;;;;;;;;;;22.20;76.50;;;;;;5035443;28;19959;-55
2023/08/12 03:21:28;;;;;;;;;;;22.20;76.50;;;;;;5033875;28;19964;-55
2023/08/12 03:23:54;;;;;;;;;;;22.20;76.60;;;;;;5022062;28;19971;-54
2023/08/12 03:26:19;;;;;;;;;;;22.20;76.50;;;;;;5034502;28;19913;-54
2023/08/12 03:28:45;;;;;;;;;;;22.20;76.60;;;;;;5034192;28;19936;-54
2023/08/12 03:31:10;;;;;;;;;;;22.20;76.50;;;;;;5032314;28;19980;-54
2023/08/12 03:33:36;;;;;;;;;;;22.20;76.50;;;;;;5034651;28;19913;-54
2023/08/12 03:36:01;;;;;;;;;;;22.20;76.50;;;;;;5034713;28;19966;-54
2023/08/12 03:38:27;;;;;;;;;;;22.20;76.60;;;;;;5033559;28;20387;-55
2023/08/12 03:40:52;;;;;;;;;;;22.20;76.60;;;;;;5032202;28;19913;-53
2023/08/12 03:43:17;;;;;;;;;;;22.20;76.60;;;;;;5032283;28;19913;-55
2023/08/12 03:45:43;;;;;;;;;;;22.20;76.50;;;;;;5026781;28;19956;-53
2023/08/12 03:48:08;;;;;;;;;;;22.20;76.60;;;;;;5033843;28;19925;-53
2023/08/12 03:50:34;;;;;;;;;;;22.20;76.50;;;;;;5031593;28;20121;-54
2023/08/12 03:53:00;;;;;;;;;;;22.30;76.60;;;;;;5032977;28;20388;-53
2023/08/12 03:55:26;;;;;;;;;;;22.20;76.30;;;;;;5031349;28;19944;-53
2023/08/12 03:57:51;;;;;;;;;;;22.20;76.10;;;;;;5033004;28;19968;-54
2023/08/12 04:00:17;;;;;;;;;;;22.20;75.90;;;;;;5031243;28;19935;-53
2023/08/12 04:02:43;;;;;;;;;;;22.20;76.30;;;;;;5033126;28;19921;-53
2023/08/12 04:05:08;;;;;;;;;;;22.20;76.40;;;;;;5032971;28;19909;-53
2023/08/12 04:07:35;;;;;;;;;;;22.20;76.30;;;;;;5025255;28;19962;-53
2023/08/12 04:10:01;;;;;;;;;;;22.20;76.40;;;;;;5033225;28;19913;-54
2023/08/12 04:12:26;;;;;;;;;;;22.20;76.50;;;;;;5034278;28;20388;-53
2023/08/12 04:14:51;;;;;;;;;;;22.20;76.40;;;;;;5030753;28;20317;-54
2023/08/12 04:17:17;;;;;;;;;;;22.20;76.40;;;;;;5033359;28;19913;-53
2023/08/12 04:19:42;;;;;;;;;;;22.20;75.90;;;;;;5033608;28;19913;-53
2023/08/12 04:22:08;;;;;;;;;;;22.20;76.10;;;;;;5033993;28;19920;-54
2023/08/12 04:24:33;;;;;;;;;;;22.20;76.30;;;;;;5033824;28;19913;-53
2023/08/12 04:26:59;;;;;;;;;;;22.20;76.50;;;;;;5033942;28;19913;-53
2023/08/12 04:29:24;;;;;;;;;;;22.20;76.50;;;;;;5030238;28;19921;-54
2023/08/12 04:31:50;;;;;;;;;;;22.20;76.30;;;;;;5032427;28;19913;-53
2023/08/12 04:34:15;;;;;;;;;;;22.20;76.20;;;;;;5033649;28;20292;-53
2023/08/12 04:36:41;;;;;;;;;;;22.20;76.40;;;;;;5033615;28;19914;-53
2023/08/12 04:39:06;;;;;;;;;;;22.20;76.40;;;;;;5032816;28;19948;-53
2023/08/12 04:41:33;;;;;;;;;;;22.20;76.30;;;;;;5032336;28;19917;-53
2023/08/12 04:43:58;;;;;;;;;;;22.20;76.50;;;;;;5028431;28;20432;-53
2023/08/12 04:46:24;;;;;;;;;;;22.20;76.40;;;;;;5032390;28;20007;-54
2023/08/12 04:48:49;;;;;;;;;;;22.20;75.80;;;;;;5031982;28;19921;-54
2023/08/12 04:51:14;;;;;;;;;;;22.20;75.90;;;;;;5032646;28;19917;-53
2023/08/12 04:53:40;;;;;;;;;;;22.20;75.90;;;;;;5031395;28;19909;-54
2023/08/12 04:56:05;;;;;;;;;;;22.20;76.00;;;;;;5031261;28;19921;-54
2023/08/12 04:58:31;;;;;;;;;;;22.20;75.80;;;;;;5028417;28;19953;-53
2023/08/12 05:00:57;;;;;;;;;;;22.20;75.70;;;;;;5030025;28;19913;-53
2023/08/12 05:03:22;;;;;;;;;;;22.20;76.00;;;;;;5027700;28;20409;-53
2023/08/12 05:05:49;;;;;;;;;;;22.10;75.90;;;;;;5031908;28;20046;-53
2023/08/12 05:08:14;;;;;;;;;;;22.10;75.70;;;;;;5030292;28;19913;-54
2023/08/12 05:10:39;;;;;;;;;;;22.10;76.10;;;;;;5014732;28;19935;-54
2023/08/12 05:13:05;;;;;;;;;;;22.20;76.00;;;;;;5030288;28;19913;-53
2023/08/12 05:15:31;;;;;;;;;;;22.20;76.10;;;;;;5029368;28;19920;-53
2023/08/12 05:17:56;;;;;;;;;;;22.10;75.70;;;;;;5027051;28;19909;-53
2023/08/12 05:20:21;;;;;;;;;;;22.20;75.70;;;;;;5031294;28;19909;-53
2023/08/12 05:22:47;;;;;;;;;;;22.20;76.00;;;;;;5044770;28;19920;-53
2023/08/12 05:25:12;;;;;;;;;;;22.20;75.70;;;;;;5043327;28;19920;-53
2023/08/12 05:27:38;;;;;;;;;;;22.20;76.10;;;;;;5035229;28;19920;-55
2023/08/12 05:30:04;;;;;;;;;;;22.20;75.70;;;;;;5030778;28;19920;-53
2023/08/12 05:32:29;;;;;;;;;;;22.20;75.90;;;;;;5032923;28;19913;-53
2023/08/12 05:34:55;;;;;;;;;;;22.20;75.70;;;;;;5030121;28;20431;-53
2023/08/12 05:37:20;;;;;;;;;;;22.20;76.30;;;;;;5032592;28;20392;-53
2023/08/12 05:39:46;;;;;;;;;;;22.20;76.00;;;;;;5030173;28;19913;-53
2023/08/12 05:42:11;;;;;;;;;;;22.20;76.00;;;;;;5030673;28;19971;-53
2023/08/12 05:44:37;;;;;;;;;;;22.20;75.80;;;;;;5036494;28;19915;-53
2023/08/12 05:47:02;;;;;;;;;;;22.20;76.20;;;;;;5032642;28;20005;-53
2023/08/12 05:49:28;;;;;;;;;;;22.20;75.80;;;;;;5030776;28;19917;-53
2023/08/12 05:51:53;;;;;;;;;;;22.20;76.00;;;;;;5032067;28;19949;-53
2023/08/12 05:54:19;;;;;;;;;;;22.20;75.90;;;;;;5030620;28;19921;-53
2023/08/12 05:56:45;;;;;;;;;;;22.20;76.30;;;;;;5032117;28;19918;-53
2023/08/12 05:59:10;;;;;;;;;;;22.20;76.00;;;;;;5030602;28;19959;-53
2023/08/12 06:01:35;;;;;;;;;;;22.20;75.90;;;;;;5029495;28;19929;-53
2023/08/12 06:04:01;;;;;;;;;;;22.20;75.80;;;;;;5030871;28;19913;-54
2023/08/12 06:06:26;;;;;;;;;;;22.20;75.80;;;;;;5030842;28;19913;-53
2023/08/12 06:08:52;;;;;;;;;;;22.10;76.10;;;;;;5030219;28;19964;-53
2023/08/12 06:11:17;;;;;;;;;;;22.10;76.00;;;;;;5030430;28;19913;-54
2023/08/12 06:13:43;;;;;;;;;;;22.10;76.20;;;;;;5030478;28;19913;-54
2023/08/12 06:16:08;;;;;;;;;;;22.10;75.90;;;;;;5030871;28;19913;-53
2023/08/12 06:18:34;;;;;;;;;;;22.10;75.90;;;;;;5031184;28;19917;-54
2023/08/12 06:20:59;;;;;;;;;;;22.20;76.00;;;;;;5031842;28;19917;-53
2023/08/12 06:23:25;;;;;;;;;;;22.20;76.00;;;;;;5044756;28;19967;-53
2023/08/12 06:25:50;;;;;;;;;;;22.10;76.20;;;;;;5030560;28;19913;-53
2023/08/12 06:28:15;;;;;;;;;;;22.20;76.50;;;;;;5031928;28;20021;-54
2023/08/12 06:30:44;;;;;;;;;;;22.20;76.40;;;;;;5030733;28;19917;-54
2023/08/12 06:33:09;;;;;;;;;;;22.20;76.40;;;;;;5030741;28;19917;-53
2023/08/12 06:35:35;;;;;;;;;;;22.20;76.50;;;;;;5031626;28;19913;-53
2023/08/12 06:38:00;;;;;;;;;;;22.20;76.40;;;;;;5029502;28;19969;-54
2023/08/12 06:40:26;;;;;;;;;;;22.20;76.60;;;;;;5031442;28;19988;-53
2023/08/12 06:42:52;;;;;;;;;;;22.20;76.70;;;;;;5031639;28;19928;-54
2023/08/12 06:45:17;;;;;;;;;;;22.20;76.70;;;;;;5029716;28;20399;-53
2023/08/12 06:47:43;;;;;;;;;;;22.20;76.80;;;;;;5031649;28;19913;-53
2023/08/12 06:50:08;;;;;;;;;;;22.20;76.60;;;;;;5031379;28;19917;-53
2023/08/12 06:52:34;;;;;;;;;;;22.20;76.70;;;;;;5028678;28;19976;-53
2023/08/12 06:54:59;;;;;;;;;;;22.20;76.60;;;;;;5031419;28;19960;-53
2023/08/12 06:57:24;;;;;;;;;;;22.20;76.60;;;;;;5031753;28;19913;-53
2023/08/12 06:59:50;;;;;;;;;;;22.20;76.50;;;;;;5029525;28;19928;-54
2023/08/12 07:02:16;;;;;;;;;;;22.20;76.50;;;;;;5029154;28;20063;-53
2023/08/12 07:04:42;;;;;;;;;;;22.20;76.50;;;;;;5031406;28;19913;-53
2023/08/12 07:07:07;;;;;;;;;;;22.20;76.50;;;;;;5029244;28;20445;-53
2023/08/12 07:09:32;;;;;;;;;;;22.20;76.60;;;;;;5027407;28;20341;-53
2023/08/12 07:11:58;;;;;;;;;;;22.20;76.50;;;;;;5031605;28;20253;-53
2023/08/12 07:14:23;;;;;;;;;;;22.20;76.80;;;;;;5013220;28;20257;-54
2023/08/12 07:16:49;;;;;;;;;;;22.20;76.90;;;;;;5030432;28;19917;-53
2023/08/12 07:19:15;;;;;;;;;;;22.20;76.70;;;;;;5031178;28;19917;-53
2023/08/12 07:21:40;;;;;;;;;;;22.20;76.70;;;;;;5029077;28;20384;-53
2023/08/12 07:24:06;;;;;;;;;;;22.20;76.70;;;;;;5032475;28;19955;-54
2023/08/12 07:26:31;;;;;;;;;;;22.20;76.70;;;;;;5035217;28;20384;-53
2023/08/12 07:28:57;;;;;;;;;;;22.20;76.90;;;;;;5034331;28;19909;-53
2023/08/12 07:31:22;;;;;;;;;;;22.20;76.80;;;;;;5033930;28;19920;-53
2023/08/12 07:33:47;;;;;;;;;;;22.20;76.90;;;;;;5034071;28;19939;-54
2023/08/12 07:36:13;;;;;;;;;;;22.20;76.90;;;;;;5032254;28;19936;-53
2023/08/12 07:38:38;;;;;;;;;;;22.20;77.10;;;;;;5030773;28;19994;-53
2023/08/12 07:41:04;;;;;;;;;;;22.20;76.80;;;;;;5035493;28;19917;-53
2023/08/12 07:43:29;;;;;;;;;;;22.20;76.80;;;;;;5024219;28;19959;-53
2023/08/12 07:45:55;;;;;;;;;;;22.20;77.00;;;;;;5033570;28;19917;-54
2023/08/12 07:48:20;;;;;;;;;;;22.20;76.80;;;;;;5032917;28;19920;-53
2023/08/12 07:50:48;;;;;;;;;;;22.20;76.70;;;;;;5031660;28;19913;-53
2023/08/12 07:53:14;;;;;;;;;;;22.20;76.80;;;;;;5033241;28;19909;-53
2023/08/12 07:55:40;;;;;;;;;;;22.20;76.90;;;;;;5033085;28;20439;-53
2023/08/12 07:58:05;;;;;;;;;;;22.20;77.40;;;;;;5033371;28;19951;-53
2023/08/12 08:00:32;;;;;;;;;;;22.20;77.40;;;;;;5031395;28;19917;-54
2023/08/12 08:02:57;;;;;;;;;;;22.20;77.10;;;;;;5033405;28;20436;-53
2023/08/12 08:05:23;;;;;;;;;;;22.20;77.10;;;;;;5032302;28;19944;-53
2023/08/12 08:07:48;;;;;;;;;;;22.20;77.00;;;;;;5032133;28;19920;-53
2023/08/12 08:10:13;;;;;;;;;;;22.20;76.90;;;;;;5032374;28;19963;-54
2023/08/12 08:12:39;;;;;;;;;;;22.20;77.00;;;;;;5031910;28;19924;-54
2023/08/12 08:15:04;;;;;;;;;;;22.20;77.00;;;;;;5032156;28;19921;-54
2023/08/12 08:17:30;;;;;;;;;;;22.20;76.90;;;;;;5027012;28;19913;-53
2023/08/12 08:19:55;;;;;;;;;;;22.20;76.90;;;;;;5027942;28;19999;-54
2023/08/12 08:22:21;;;;;;;;;;;22.20;77.30;;;;;;5032105;28;20332;-54
2023/08/12 08:24:46;;;;;;;;;;;22.20;77.10;;;;;;5031845;28;19920;-53
2023/08/12 08:27:13;;;;;;;;;;;22.20;77.10;;;;;;5032292;28;20031;-53
2023/08/12 08:29:38;;;;;;;;;;;22.20;77.10;;;;;;5032546;28;20008;-54
2023/08/12 08:32:04;;;;;;;;;;;22.30;77.40;;;;;;5033434;28;20016;-53
2023/08/12 08:34:29;;;;;;;;;;;22.30;77.30;;;;;;5030159;28;19920;-54
2023/08/12 08:36:55;;;;;;;;;;;22.30;77.20;;;;;;5032852;28;20428;-53
2023/08/12 08:39:21;;;;;;;;;;;22.30;77.10;;;;;;5031291;28;19936;-53
2023/08/12 08:41:47;;;;;;;;;;;22.30;77.10;;;;;;5032206;28;19965;-54
2023/08/12 08:44:12;;;;;;;;;;;22.30;77.20;;;;;;5037921;28;20266;-53
2023/08/12 08:46:38;;;;;;;;;;;22.30;77.50;;;;;;5031074;28;19913;-53
2023/08/12 08:49:04;;;;;;;;;;;22.30;77.30;;;;;;5028090;28;19917;-53
2023/08/12 08:51:30;;;;;;;;;;;22.30;77.20;;;;;;5033140;28;19917;-53
2023/08/12 08:53:55;;;;;;;;;;;22.30;77.30;;;;;;5035451;28;19917;-54
2023/08/12 08:56:21;;;;;;;;;;;22.30;77.10;;;;;;5031451;28;19921;-53
2023/08/12 08:58:47;;;;;;;;;;;22.30;77.70;;;;;;5028479;28;20266;-53
2023/08/12 09:01:13;;;;;;;;;;;22.30;77.30;;;;;;5032680;28;19917;-53
2023/08/12 09:03:38;;;;;;;;;;;22.30;77.40;;;;;;5030634;28;19917;-53
2023/08/12 09:06:04;;;;;;;;;;;22.30;77.70;;;;;;5015549;28;19920;-53
2023/08/12 09:08:31;;;;;;;;;;;22.30;77.70;;;;;;5015358;28;20000;-53
2023/08/12 09:10:57;;;;;;;;;;;22.30;77.80;;;;;;5025474;28;20428;-53
2023/08/12 09:13:23;;;;;;;;;;;22.30;78.10;;;;;;5030122;28;19928;-54
2023/08/12 09:15:48;;;;;;;;;;;22.30;78.00;;;;;;5032652;28;20277;-53
2023/08/12 09:18:15;;;;;;;;;;;22.30;78.10;;;;;;5034746;28;19917;-54
2023/08/12 09:20:40;;;;;;;;;;;22.40;78.50;;;;;;5031063;28;19917;-53
2023/08/12 09:23:08;;;;;;;;;;;22.40;78.60;;;;;;5032255;28;19993;-53
2023/08/12 09:25:35;;;;;;;;;;;22.40;78.70;;;;;;5032395;28;19928;-53
2023/08/12 09:28:00;;;;;;;;;;;22.40;78.70;;;;;;5032615;28;19996;-54
2023/08/12 09:30:29;;;;;;;;;;;22.40;79.10;;;;;;5029708;28;20008;-54
2023/08/12 09:33:03;;;;;;;;;;;22.40;79.10;;;;;;5030457;28;19963;-53
2023/08/12 09:35:34;;;;;;;;;;;22.40;79.60;;;;;;5032769;28;19909;-53
2023/08/12 09:38:00;;;;;;;;;;;22.40;79.60;;;;;;5041296;28;19917;-53
2023/08/12 09:40:26;;;;;;;;;;;22.40;79.80;;;;;;5029381;28;19931;-53
2023/08/12 09:42:51;;;;;;;;;;;22.40;79.70;;;;;;5032312;28;20008;-53
2023/08/12 09:45:20;;;;;;;;;;;22.40;79.80;;;;;;5028562;28;19920;-53
2023/08/12 09:47:45;;;;;;;;;;;22.40;80.00;;;;;;5026450;28;19987;-53
2023/08/12 09:50:11;;;;;;;;;;;22.40;80.10;;;;;;5036568;28;20327;-53
2023/08/12 09:52:36;;;;;;;;;;;22.40;80.30;;;;;;5045358;28;20004;-53
2023/08/12 09:55:02;;;;;;;;;;;22.40;80.50;;;;;;5030800;28;19909;-53
2023/08/12 09:57:28;;;;;;;;;;;22.40;80.90;;;;;;5028061;28;19951;-54
2023/08/12 09:59:53;;;;;;;;;;;22.40;80.90;;;;;;5027942;28;19971;-54
2023/08/12 10:02:19;;;;;;;;;;;22.40;80.90;;;;;;5015830;28;19932;-53
2023/08/12 10:04:45;;;;;;;;;;;22.40;80.70;;;;;;5051255;28;19920;-54
2023/08/12 10:07:10;;;;;;;;;;;22.40;80.70;;;;;;5049919;28;19913;-53
2023/08/12 10:09:36;;;;;;;;;;;22.40;80.70;;;;;;5048359;28;19917;-53
2023/08/12 10:12:02;;;;;;;;;;;22.40;80.80;;;;;;5024576;28;20050;-54
2023/08/12 10:14:28;;;;;;;;;;;22.40;80.80;;;;;;5024664;28;20288;-53
2023/08/12 10:16:53;;;;;;;;;;;22.40;80.90;;;;;;5027583;28;19999;-53
2023/08/12 10:19:18;;;;;;;;;;;22.40;81.00;;;;;;5036377;28;20016;-53
2023/08/12 10:21:44;;;;;;;;;;;22.40;81.20;;;;;;5044158;28;19921;-53
2023/08/12 10:24:10;;;;;;;;;;;22.40;81.80;;;;;;5019703;28;19932;-53
2023/08/12 10:26:35;;;;;;;;;;;22.40;82.10;;;;;;5037928;28;19916;-53
2023/08/12 10:29:01;;;;;;;;;;;22.40;82.10;;;;;;5039212;28;20531;-53
2023/08/12 10:31:27;;;;;;;;;;;22.40;82.30;;;;;;4996088;28;20369;-53
2023/08/12 10:33:53;;;;;;;;;;;22.40;82.30;;;;;;5018445;28;19909;-54
2023/08/12 10:36:21;;;;;;;;;;;22.50;83.10;;;;;;5031271;28;19960;-55
2023/08/12 10:38:47;;;;;;;;;;;22.50;83.30;;;;;;5030199;28;19917;-55
2023/08/12 10:41:15;;;;;;;;;;;22.50;83.20;;;;;;5039337;28;19920;-53
2023/08/12 10:43:56;;;;;;;;;;;22.50;83.50;;;;;;5037898;28;19921;-54
2023/08/12 10:46:30;;;;;;;;;;;22.50;83.80;;;;;;5044468;28;19913;-53
2023/08/12 10:48:57;;;;;;;;;;;22.50;83.70;;;;;;5037722;28;19921;-53
2023/08/12 10:51:41;;;;;;;;;;;22.40;83.90;;;;;;5040269;28;19963;-53
2023/08/12 10:54:30;;;;;;;;;;;22.50;84.00;;;;;;5029102;28;19983;-53
2023/08/12 10:57:19;;;;;;;;;;;22.40;83.90;;;;;;5027236;28;20011;-53
2023/08/12 10:59:45;;;;;;;;;;;22.40;84.90;;;;;;5030025;28;19917;-53
2023/08/12 11:02:26;;;;;;;;;;;22.50;85.30;;;;;;5034312;28;19921;-53
2023/08/12 11:04:56;;;;;;;;;;;22.40;84.40;;;;;;5034990;28;19910;-53
2023/08/12 11:07:42;;;;;;;;;;;22.50;84.70;;;;;;5035421;28;20003;-53
2023/08/12 11:10:12;;;;;;;;;;;22.50;85.20;;;;;;5051775;28;20338;-53
2023/08/12 11:12:38;;;;;;;;;;;22.50;85.60;;;;;;5043917;28;19913;-53
2023/08/12 11:15:04;;;;;;;;;;;22.60;85.30;;;;;;5033880;28;20388;-53
2023/08/12 11:17:37;;;;;;;;;;;22.60;85.50;;;;;;5035739;28;19917;-54
2023/08/12 11:20:06;;;;;;;;;;;22.70;85.70;;;;;;5016005;28;19921;-53
2023/08/12 11:22:32;;;;;;;;;;;22.60;85.50;;;;;;5036897;28;20292;-53
2023/08/12 11:24:57;;;;;;;;;;;22.60;86.00;;;;;;5045250;28;19913;-53
2023/08/12 11:27:23;;;;;;;;;;;22.60;85.40;;;;;;5031396;28;19921;-53
2023/08/12 11:29:49;;;;;;;;;;;22.60;85.10;;;;;;5034023;28;19920;-54
2023/08/12 11:32:14;;;;;;;;;;;22.60;85.30;;;;;;5040975;28;20289;-53
2023/08/12 11:34:40;;;;;;;;;;;22.60;85.70;;;;;;5032814;28;19920;-54
2023/08/12 11:37:05;;;;;;;;;;;22.50;85.80;;;;;;5029843;28;21157;-53
2023/08/12 11:39:31;;;;;;;;;;;22.50;85.70;;;;;;5033680;28;20460;-55
2023/08/12 11:41:57;;;;;;;;;;;22.50;86.00;;;;;;5031814;28;20365;-54
2023/08/12 11:44:23;;;;;;;;;;;22.50;86.20;;;;;;5051359;28;19915;-53
2023/08/12 11:46:49;;;;;;;;;;;22.50;86.30;;;;;;5033570;28;20297;-54
2023/08/12 11:49:14;;;;;;;;;;;22.50;86.80;;;;;;5029874;28;19921;-55
2023/08/12 11:51:39;;;;;;;;;;;22.50;86.50;;;;;;5049348;28;20277;-54
2023/08/12 11:54:05;;;;;;;;;;;22.40;86.90;;;;;;5030516;28;20360;-53
2023/08/12 11:56:30;;;;;;;;;;;22.40;86.70;;;;;;5029650;28;19979;-54
2023/08/12 11:58:56;;;;;;;;;;;22.50;87.10;;;;;;5034932;28;19913;-53
2023/08/12 12:01:22;;;;;;;;;;;22.40;87.00;;;;;;5034597;28;19921;-53
2023/08/12 12:03:54;;;;;;;;;;;22.50;87.30;;;;;;5031991;28;19954;-53
2023/08/12 12:06:38;;;;;;;;;;;22.40;87.40;;;;;;5033359;28;19920;-53
2023/08/12 12:09:09;;;;;;;;;;;22.40;87.30;;;;;;5030384;28;19971;-54
2023/08/12 12:11:36;;;;;;;;;;;22.50;87.00;;;;;;5045943;28;19917;-53
2023/08/12 12:14:05;;;;;;;;;;;22.40;87.60;;;;;;5043765;28;19913;-53
2023/08/12 12:16:37;;;;;;;;;;;22.50;87.80;;;;;;5033190;28;19920;-54
2023/08/12 12:19:02;;;;;;;;;;;22.50;87.80;;;;;;5029138;28;19917;-55
2023/08/12 12:21:28;;;;;;;;;;;22.50;87.90;;;;;;5032864;28;20379;-54
2023/08/12 12:23:53;;;;;;;;;;;22.50;87.80;;;;;;5031125;28;19917;-53
2023/08/12 12:26:19;;;;;;;;;;;22.50;87.60;;;;;;5033778;28;19913;-53
2023/08/12 12:28:44;;;;;;;;;;;22.50;87.70;;;;;;5042310;28;19921;-55
2023/08/12 12:31:09;;;;;;;;;;;22.50;87.20;;;;;;5030959;28;19996;-54
2023/08/12 12:33:35;;;;;;;;;;;22.50;87.90;;;;;;5030568;28;19932;-53
2023/08/12 12:36:00;;;;;;;;;;;22.50;89.20;;;;;;5019298;28;19909;-53
2023/08/12 12:38:26;;;;;;;;;;;22.50;89.60;;;;;;5037077;28;19921;-53
2023/08/12 12:40:51;;;;;;;;;;;22.50;89.30;;;;;;5030991;28;20011;-53
2023/08/12 12:43:17;;;;;;;;;;;22.50;89.40;;;;;;5029652;28;19972;-54
2023/08/12 12:45:42;;;;;;;;;;;22.50;89.20;;;;;;5035305;28;19920;-55
2023/08/12 12:48:08;;;;;;;;;;;22.60;89.80;;;;;;5034866;28;20282;-54
2023/08/12 12:50:33;;;;;;;;;;;22.50;90.00;;;;;;5038312;28;19982;-53
2023/08/12 12:52:59;;;;;;;;;;;22.50;89.40;;;;;;5029349;28;19971;-54
2023/08/12 12:55:24;;;;;;;;;;;22.50;89.90;;;;;;5030507;28;20340;-53
2023/08/12 12:57:49;;;;;;;;;;;22.50;90.00;;;;;;5030699;28;19936;-53
2023/08/12 13:00:16;;;;;;;;;;;22.50;89.90;;;;;;5029337;28;19925;-53
2023/08/12 13:02:41;;;;;;;;;;;22.50;90.00;;;;;;5028794;28;19917;-54
2023/08/12 13:05:06;;;;;;;;;;;22.50;90.10;;;;;;5029838;28;19919;-53
2023/08/12 13:07:32;;;;;;;;;;;22.60;90.10;;;;;;5031375;28;19948;-53
2023/08/12 13:09:57;;;;;;;;;;;22.60;90.20;;;;;;5025147;28;20428;-53
2023/08/12 13:12:23;;;;;;;;;;;22.60;90.20;;;;;;5030882;28;20293;-53
2023/08/12 13:14:48;;;;;;;;;;;22.60;90.20;;;;;;5030085;28;20020;-54
2023/08/12 13:17:14;;;;;;;;;;;22.60;90.30;;;;;;5030049;28;19917;-53
2023/08/12 13:19:39;;;;;;;;;;;22.60;90.20;;;;;;5031621;28;19917;-53
2023/08/12 13:22:04;;;;;;;;;;;22.60;90.50;;;;;;5032637;28;20017;-54
2023/08/12 13:24:30;;;;;;;;;;;22.60;90.40;;;;;;5031098;28;19913;-53
2023/08/12 13:26:55;;;;;;;;;;;22.60;90.40;;;;;;5032822;28;20304;-53
2023/08/12 13:29:21;;;;;;;;;;;22.60;90.50;;;;;;5031997;28;19909;-53
2023/08/12 13:31:46;;;;;;;;;;;22.60;90.50;;;;;;5029662;28;19917;-53
2023/08/12 13:34:12;;;;;;;;;;;22.60;90.80;;;;;;5028460;28;20040;-53
2023/08/12 13:36:37;;;;;;;;;;;22.50;90.70;;;;;;5029659;28;19928;-53
2023/08/12 13:39:03;;;;;;;;;;;22.50;90.80;;;;;;5031256;28;19913;-54
2023/08/12 13:41:28;;;;;;;;;;;22.50;90.60;;;;;;5032596;28;19909;-53
2023/08/12 13:43:54;;;;;;;;;;;22.50;91.00;;;;;;5031496;28;19913;-54
2023/08/12 13:46:19;;;;;;;;;;;22.40;91.40;;;;;;5032640;28;19916;-53
2023/08/12 13:48:45;;;;;;;;;;;22.40;91.40;;;;;;5015848;28;20043;-53
2023/08/12 13:51:10;;;;;;;;;;;22.40;91.30;;;;;;5029604;28;19914;-54
2023/08/12 13:53:36;;;;;;;;;;;22.40;91.30;;;;;;5032040;28;19913;-53
2023/08/12 13:56:01;;;;;;;;;;;22.40;91.60;;;;;;5032089;28;19982;-53
2023/08/12 13:58:26;;;;;;;;;;;22.30;91.90;;;;;;5031504;28;19913;-53
2023/08/12 14:00:52;;;;;;;;;;;22.30;91.80;;;;;;5031405;28;19914;-53
2023/08/12 14:03:18;;;;;;;;;;;22.30;91.90;;;;;;5031113;28;19925;-53
2023/08/12 14:05:43;;;;;;;;;;;22.30;91.90;;;;;;5030183;28;19952;-53
2023/08/12 14:08:09;;;;;;;;;;;22.30;91.80;;;;;;5031537;28;19952;-54
2023/08/12 14:10:34;;;;;;;;;;;22.30;91.60;;;;;;5031859;28;19914;-53